Time;durP1;ratioP1;P1;durP2;ratioP2;P2;SDS_P1;SDS_P2;PMS_P1;PMS_P2;Temp;Humidity;BMP_temperature;BMP_pressure;BME280_temperature;BME280_humidity;BME280_pressure;Samples;Min_cycle;Max_cycle;Signal;HPM_P1;HPM_P2
2021/10/05 00:00:54;;;;;;;22.40;12.10;;;;;;;11.64;77.91;100422.07;113431;1199;25024;-65
2021/10/05 00:03:22;;;;;;;21.60;11.30;;;;;;;11.58;77.84;100416.01;113660;1199;24984;-66
2021/10/05 00:05:50;;;;;;;24.40;11.90;;;;;;;11.53;77.84;100415.41;113114;1193;25166;-66
2021/10/05 00:08:18;;;;;;;25.80;12.40;;;;;;;11.48;77.89;100409.84;112982;1199;22496;-65
2021/10/05 00:10:47;;;;;;;26.80;13.20;;;;;;;11.44;77.85;100402.14;113093;1199;25204;-65
2021/10/05 00:13:15;;;;;;;23.10;11.40;;;;;;;11.41;77.92;100403.11;113000;1199;22410;-65
2021/10/05 00:15:43;;;;;;;25.80;11.70;;;;;;;11.37;77.86;100399.33;113061;1199;24152;-65
2021/10/05 00:18:11;;;;;;;24.70;11.70;;;;;;;11.35;77.73;100400.63;112955;1193;24036;-65
2021/10/05 00:20:39;;;;;;;24.20;11.60;;;;;;;11.34;77.87;100398.20;112962;1199;24806;-65
2021/10/05 00:23:08;;;;;;;21.90;11.60;;;;;;;11.31;77.96;100395.70;112942;1199;22480;-65
2021/10/05 00:25:37;;;;;;;24.80;12.10;;;;;;;11.31;78.00;100394.94;112834;1193;22539;-65
2021/10/05 00:28:06;;;;;;;24.50;12.40;;;;;;;11.32;78.14;100388.09;113434;1193;22631;-65
2021/10/05 00:30:34;;;;;;;28.40;12.90;;;;;;;11.31;78.29;100381.33;112988;1198;25263;-65
2021/10/05 00:33:03;;;;;;;26.20;13.90;;;;;;;11.29;78.40;100384.96;112918;1199;22444;-65
2021/10/05 00:35:31;;;;;;;25.50;11.80;;;;;;;11.27;78.45;100382.61;113145;1198;22582;-64
2021/10/05 00:38:00;;;;;;;25.90;14.10;;;;;;;11.25;78.67;100383.76;113075;1199;22413;-65
2021/10/05 00:40:28;;;;;;;29.30;14.40;;;;;;;11.23;78.78;100374.13;113329;1199;26265;-65
2021/10/05 00:42:58;;;;;;;39.60;19.20;;;;;;;11.22;79.01;100373.79;113050;1199;24190;-65
2021/10/05 00:45:26;;;;;;;38.20;18.20;;;;;;;11.18;79.04;100365.13;113169;1199;25172;-65
2021/10/05 00:47:54;;;;;;;44.10;20.30;;;;;;;11.12;79.06;100365.92;113098;1199;24058;-65
2021/10/05 00:50:23;;;;;;;39.10;18.60;;;;;;;11.08;79.45;100363.88;113214;1198;25064;-65
2021/10/05 00:52:51;;;;;;;44.40;20.10;;;;;;;11.06;79.39;100354.74;113118;1199;22667;-65
2021/10/05 00:55:19;;;;;;;46.30;18.70;;;;;;;11.00;79.21;100352.23;113052;1198;22560;-65
2021/10/05 00:57:47;;;;;;;47.20;19.50;;;;;;;10.87;79.20;100350.58;113076;1198;25030;-65
2021/10/05 01:00:17;;;;;;;48.30;16.40;;;;;;;10.75;79.66;100344.80;112988;1193;24116;-65
2021/10/05 01:02:46;;;;;;;52.50;15.40;;;;;;;10.67;79.81;100337.98;113042;1199;24544;-65
2021/10/05 01:05:14;;;;;;;38.80;15.10;;;;;;;10.59;79.87;100336.38;113011;1193;25302;-65
2021/10/05 01:07:47;;;;;;;33.10;15.10;;;;;;;10.56;80.19;100333.50;113063;1198;26584;-65
2021/10/05 01:10:17;;;;;;;33.20;14.20;;;;;;;10.54;80.21;100329.37;113053;1192;24067;-65
2021/10/05 01:12:48;;;;;;;29.80;14.80;;;;;;;10.51;79.99;100318.59;112873;1199;22609;-66
2021/10/05 01:15:16;;;;;;;24.80;13.50;;;;;;;10.50;79.83;100311.58;113057;1199;25151;-66
2021/10/05 01:17:45;;;;;;;25.40;14.10;;;;;;;10.47;80.00;100306.38;112887;1193;22443;-66
2021/10/05 01:20:13;;;;;;;27.80;12.90;;;;;;;10.44;79.90;100301.04;112961;1199;25587;-65
2021/10/05 01:22:42;;;;;;;29.20;14.10;;;;;;;10.41;79.96;100304.54;112945;1199;26271;-65
2021/10/05 01:25:15;;;;;;;29.90;14.80;;;;;;;10.38;79.99;100307.06;113007;1193;22569;-65
2021/10/05 01:27:46;;;;;;;27.10;14.70;;;;;;;10.39;80.07;100303.77;113434;1199;22417;-66
2021/10/05 01:30:15;;;;;;;27.30;14.50;;;;;;;10.38;80.08;100302.95;113333;1198;23389;-65
2021/10/05 01:32:44;;;;;;;23.40;13.20;;;;;;;10.36;79.98;100298.33;112996;1199;22609;-65
2021/10/05 01:35:15;;;;;;;24.80;12.90;;;;;;;10.34;80.03;100293.73;112788;1199;22431;-66
2021/10/05 01:37:43;;;;;;;27.00;14.50;;;;;;;10.32;80.13;100289.19;113057;1199;24137;-66
2021/10/05 01:40:12;;;;;;;30.60;16.20;;;;;;;10.33;80.20;100287.31;112906;1198;23047;-65
2021/10/05 01:42:41;;;;;;;27.60;13.90;;;;;;;10.31;80.17;100290.27;112938;1199;22408;-65
2021/10/05 01:45:10;;;;;;;27.80;14.70;;;;;;;10.29;80.20;100289.58;112961;1199;22508;-65
2021/10/05 01:47:39;;;;;;;29.70;14.70;;;;;;;10.28;80.24;100284.71;112954;1198;22449;-65
2021/10/05 01:50:09;;;;;;;28.90;14.30;;;;;;;10.26;80.36;100289.96;112963;1199;25096;-65
2021/10/05 01:52:37;;;;;;;31.10;14.50;;;;;;;10.26;80.21;100298.59;112942;1199;22560;-64
2021/10/05 01:55:08;;;;;;;32.00;16.60;;;;;;;10.26;80.37;100293.76;112976;1193;22507;-65
2021/10/05 01:57:38;;;;;;;33.90;17.10;;;;;;;10.25;80.25;100284.55;113023;1199;24009;-64
2021/10/05 02:00:09;;;;;;;30.20;16.60;;;;;;;10.24;80.18;100278.29;112971;1199;22453;-65
2021/10/05 02:02:38;;;;;;;34.40;17.90;;;;;;;10.22;80.28;100280.45;113052;1198;22939;-65
2021/10/05 02:05:07;;;;;;;36.80;18.10;;;;;;;10.20;80.29;100275.69;112973;1199;22439;-65
2021/10/05 02:07:35;;;;;;;38.10;18.60;;;;;;;10.20;80.55;100270.61;113296;1193;22435;-65
2021/10/05 02:10:05;;;;;;;49.40;22.50;;;;;;;10.21;80.53;100266.58;113210;1199;22495;-65
2021/10/05 02:12:33;;;;;;;52.00;22.90;;;;;;;10.21;80.98;100262.77;113085;1199;24182;-65
2021/10/05 02:15:02;;;;;;;47.70;23.30;;;;;;;10.21;81.17;100260.92;112911;1199;22456;-65
2021/10/05 02:17:30;;;;;;;46.40;23.70;;;;;;;10.18;80.98;100258.66;112991;1193;22517;-65
2021/10/05 02:19:58;;;;;;;41.70;21.30;;;;;;;10.15;80.82;100257.21;113269;1193;24027;-65
2021/10/05 02:22:27;;;;;;;44.10;22.70;;;;;;;10.15;80.82;100251.98;113201;1199;24432;-65
2021/10/05 02:24:56;;;;;;;45.40;23.20;;;;;;;10.17;80.82;100253.95;113128;1199;25230;-65
2021/10/05 02:27:24;;;;;;;46.10;22.30;;;;;;;10.19;80.80;100257.29;112958;1193;25433;-65
2021/10/05 02:29:52;;;;;;;43.40;21.90;;;;;;;10.19;80.87;100262.61;113008;1193;25174;-65
2021/10/05 02:32:22;;;;;;;44.70;20.70;;;;;;;10.18;81.07;100261.63;113118;1193;22459;-66
2021/10/05 02:34:50;;;;;;;34.60;16.70;;;;;;;10.17;81.18;100256.80;112894;1199;25127;-65
2021/10/05 02:37:18;;;;;;;37.00;18.60;;;;;;;10.16;81.19;100257.73;113004;1199;22782;-65
2021/10/05 02:39:49;;;;;;;34.00;17.90;;;;;;;10.16;81.15;100251.05;112722;1193;22433;-66
2021/10/05 02:42:17;;;;;;;31.70;16.60;;;;;;;10.17;81.41;100243.42;112980;1193;22408;-66
2021/10/05 02:44:45;;;;;;;30.20;15.70;;;;;;;10.19;81.65;100243.45;112830;1199;22530;-65
2021/10/05 02:47:15;;;;;;;29.40;16.40;;;;;;;10.22;81.74;100237.41;112974;1193;22461;-65
2021/10/05 02:49:46;;;;;;;30.80;17.20;;;;;;;10.23;81.74;100241.10;112917;1199;25370;-65
2021/10/05 02:52:16;;;;;;;28.90;16.50;;;;;;;10.24;81.82;100238.23;112992;1199;24179;-65
2021/10/05 02:54:47;;;;;;;29.70;17.10;;;;;;;10.24;81.77;100235.15;113126;1199;22412;-65
2021/10/05 02:57:16;;;;;;;32.80;17.00;;;;;;;10.26;81.99;100229.73;113144;1199;22530;-66
2021/10/05 02:59:46;;;;;;;30.00;17.20;;;;;;;10.25;82.14;100223.14;113171;1199;22428;-66
2021/10/05 03:02:16;;;;;;;31.10;16.20;;;;;;;10.27;82.18;100219.52;113182;1193;22479;-65
2021/10/05 03:04:44;;;;;;;35.80;17.70;;;;;;;10.30;82.34;100223.64;113203;1199;22477;-65
2021/10/05 03:07:13;;;;;;;37.00;18.00;;;;;;;10.30;82.32;100220.54;112927;1199;25025;-66
2021/10/05 03:09:42;;;;;;;32.90;17.10;;;;;;;10.29;82.48;100220.96;113054;1199;25118;-65
2021/10/05 03:12:10;;;;;;;34.90;18.40;;;;;;;10.28;82.45;100215.67;112877;1199;25554;-65
2021/10/05 03:14:41;;;;;;;33.90;18.80;;;;;;;10.26;82.54;100211.84;112980;1199;22939;-65
2021/10/05 03:17:08;;;;;;;;;;;;;;;10.27;82.57;100224.02;113071;1199;26357;-65
2021/10/05 03:19:38;;;;;;;35.90;18.30;;;;;;;10.25;82.69;100214.01;113022;1199;22431;-65
2021/10/05 03:22:07;;;;;;;36.10;19.20;;;;;;;10.23;82.75;100212.55;113026;1193;22560;-65
2021/10/05 03:24:36;;;;;;;40.90;21.00;;;;;;;10.22;82.70;100219.63;113029;1198;22464;-65
2021/10/05 03:27:06;;;;;;;34.20;18.50;;;;;;;10.22;82.99;100218.10;112870;1199;22498;-65
2021/10/05 03:29:34;;;;;;;34.10;18.50;;;;;;;10.24;82.97;100211.64;112964;1199;25035;-66
2021/10/05 03:32:02;;;;;;;35.10;19.40;;;;;;;10.25;82.97;100203.80;113323;1199;22572;-66
2021/10/05 03:34:31;;;;;;;38.80;20.80;;;;;;;10.25;83.11;100203.76;113141;1193;22510;-65
2021/10/05 03:36:59;;;;;;;33.20;18.60;;;;;;;10.25;83.32;100200.67;113271;1198;22446;-70
2021/10/05 03:39:27;;;;;;;35.00;19.50;;;;;;;10.24;83.21;100197.45;113464;1192;25229;-66
2021/10/05 03:41:55;;;;;;;34.40;18.50;;;;;;;10.24;83.15;100198.81;113149;1194;22554;-66
2021/10/05 03:44:24;;;;;;;33.00;18.40;;;;;;;10.23;83.20;100197.73;112922;1199;22447;-65
2021/10/05 03:46:52;;;;;;;36.00;18.50;;;;;;;10.23;83.08;100197.77;113547;1179;22295;-57
2021/10/05 03:49:21;;;;;;;35.30;18.60;;;;;;;10.22;83.04;100198.56;113157;1193;22424;-58
2021/10/05 03:51:49;;;;;;;32.60;17.70;;;;;;;10.20;82.93;100193.70;113176;1200;26274;-58
2021/10/05 03:54:17;;;;;;;34.40;18.20;;;;;;;10.19;83.00;100186.59;113271;1200;23922;-59
2021/10/05 03:56:45;;;;;;;31.10;17.00;;;;;;;10.17;82.90;100181.92;113018;1200;25278;-60
2021/10/05 03:59:15;;;;;;;36.60;18.60;;;;;;;10.16;83.06;100175.07;112639;1200;25194;-59
2021/10/05 04:01:44;;;;;;;30.80;17.10;;;;;;;10.18;82.87;100170.75;112604;1200;25233;-59
2021/10/05 04:04:12;;;;;;;35.60;20.90;;;;;;;10.19;83.09;100166.55;116931;1200;22293;-57
2021/10/05 04:06:41;;;;;;;36.00;19.80;;;;;;;10.21;83.19;100165.73;116600;1200;22444;-54
2021/10/05 04:09:10;;;;;;;35.90;20.00;;;;;;;10.23;83.37;100160.60;113251;1200;22431;-64
2021/10/05 04:11:38;;;;;;;40.20;21.60;;;;;;;10.26;83.54;100158.87;113221;1193;24044;-58
2021/10/05 04:14:06;;;;;;;39.20;20.80;;;;;;;10.28;83.63;100155.70;113068;1200;22483;-60
2021/10/05 04:16:34;;;;;;;39.70;21.80;;;;;;;10.29;83.56;100155.48;113024;1193;22432;-58
2021/10/05 04:19:03;;;;;;;39.40;21.30;;;;;;;10.29;83.49;100149.35;112878;1200;24124;-60
2021/10/05 04:21:31;;;;;;;40.10;22.80;;;;;;;10.30;83.56;100144.79;113276;1200;25304;-55
2021/10/05 04:24:00;;;;;;;38.20;21.10;;;;;;;10.29;83.46;100139.25;113086;1193;23134;-58
2021/10/05 04:26:29;;;;;;;35.90;20.60;;;;;;;10.27;83.48;100133.99;112948;1201;24058;-59
2021/10/05 04:28:58;;;;;;;40.70;20.90;;;;;;;10.26;83.44;100126.46;113245;1193;22753;-63
2021/10/05 04:31:27;;;;;;;36.20;20.30;;;;;;;10.27;83.59;100125.50;113184;1200;23982;-59
2021/10/05 04:33:55;;;;;;;38.10;20.80;;;;;;;10.26;83.65;100119.00;113721;1200;25461;-58
2021/10/05 04:36:24;;;;;;;36.30;20.50;;;;;;;10.25;83.99;100115.45;113051;1200;22563;-58
2021/10/05 04:38:52;;;;;;;41.50;22.30;;;;;;;10.26;83.70;100119.06;113016;1200;23829;-58
2021/10/05 04:41:20;;;;;;;36.50;21.30;;;;;;;10.25;83.66;100120.15;112933;1200;22465;-58
2021/10/05 04:43:49;;;;;;;36.30;20.90;;;;;;;10.23;83.63;100122.81;112809;1200;22467;-58
2021/10/05 04:46:18;;;;;;;38.20;21.10;;;;;;;10.22;83.49;100121.36;112699;1200;22421;-58
2021/10/05 04:48:46;;;;;;;40.70;21.10;;;;;;;10.20;83.42;100119.74;112839;1200;24018;-58
2021/10/05 04:51:14;;;;;;;33.90;20.10;;;;;;;10.18;83.36;100122.70;112817;1193;24195;-58
2021/10/05 04:53:45;;;;;;;41.50;21.70;;;;;;;10.16;83.35;100126.63;112836;1200;25148;-56
2021/10/05 04:56:13;;;;;;;40.60;21.90;;;;;;;10.15;83.40;100122.15;113117;1200;26424;-58
2021/10/05 04:58:42;;;;;;;45.20;23.80;;;;;;;10.14;83.49;100118.52;113044;1200;24086;-57
2021/10/05 05:01:11;;;;;;;46.60;22.90;;;;;;;10.13;83.34;100114.94;113042;1187;22461;-55
2021/10/05 05:03:39;;;;;;;38.80;22.40;;;;;;;10.11;83.27;100109.63;113253;1177;25314;-61
2021/10/05 05:06:35;;;;;;;42.40;22.60;;;;;;;10.09;83.22;100102.09;113513;1200;22486;-60
2021/10/05 05:09:12;;;;;;;39.50;22.40;;;;;;;10.09;83.67;100090.41;113307;1201;25156;-56
2021/10/05 05:11:40;;;;;;;42.40;22.40;;;;;;;10.07;83.85;100084.53;112779;1200;22445;-59
2021/10/05 05:14:12;;;;;;;36.50;21.10;;;;;;;10.05;83.75;100080.41;113011;1193;25780;-57
2021/10/05 05:16:41;;;;;;;43.40;22.70;;;;;;;10.04;83.73;100071.29;113252;1200;24054;-58
2021/10/05 05:19:10;;;;;;;43.40;23.30;;;;;;;10.05;83.84;100065.34;112826;1200;21924;-58
2021/10/05 05:21:38;;;;;;;40.60;22.70;;;;;;;10.07;83.90;100062.95;112923;1200;22669;-58
2021/10/05 05:24:07;;;;;;;46.70;23.50;;;;;;;10.09;84.02;100056.27;112958;1200;22461;-58
2021/10/05 05:26:36;;;;;;;39.60;22.30;;;;;;;10.11;84.11;100051.00;113017;1200;22675;-57
2021/10/05 05:29:05;;;;;;;43.90;24.80;;;;;;;10.14;84.26;100045.20;113055;1200;23868;-58
2021/10/05 05:31:34;;;;;;;41.60;22.70;;;;;;;10.17;84.29;100046.02;113092;1200;25401;-59
2021/10/05 05:34:02;;;;;;;44.20;24.80;;;;;;;10.20;84.66;100050.12;113220;1200;22455;-58
2021/10/05 05:36:31;;;;;;;46.20;23.80;;;;;;;10.23;84.64;100049.50;112927;1200;22906;-58
2021/10/05 05:38:59;;;;;;;44.40;26.30;;;;;;;10.25;84.77;100050.00;113028;1200;23718;-58
2021/10/05 05:41:27;;;;;;;44.00;24.90;;;;;;;10.27;84.74;100047.99;112834;1200;22546;-58
2021/10/05 05:43:55;;;;;;;47.60;29.10;;;;;;;10.29;84.89;100045.98;112922;1193;22445;-57
2021/10/05 05:46:26;;;;;;;46.10;25.80;;;;;;;10.30;84.84;100043.39;113019;1200;24083;-57
2021/10/05 05:48:55;;;;;;;42.90;24.90;;;;;;;10.32;85.05;100037.95;113051;1200;25080;-59
2021/10/05 05:51:23;;;;;;;45.80;26.80;;;;;;;10.34;85.16;100035.55;112909;1200;24085;-58
2021/10/05 05:53:52;;;;;;;44.60;26.30;;;;;;;10.38;85.34;100040.69;112896;1200;23104;-57
2021/10/05 05:56:21;;;;;;;46.20;25.10;;;;;;;10.42;85.56;100045.01;112830;1193;24103;-58
2021/10/05 05:58:52;;;;;;;46.60;26.80;;;;;;;10.45;85.61;100044.69;112961;1200;25058;-58
2021/10/05 06:01:22;;;;;;;51.90;26.40;;;;;;;10.48;85.36;100038.91;112893;1200;23787;-56
2021/10/05 06:03:50;;;;;;;44.40;26.70;;;;;;;10.51;85.31;100035.57;112828;1193;22443;-59
2021/10/05 06:06:20;;;;;;;45.20;25.60;;;;;;;10.54;85.39;100033.53;113049;1193;22923;-58
2021/10/05 06:08:49;;;;;;;47.40;24.10;;;;;;;10.59;85.58;100033.46;112752;1193;24104;-57
2021/10/05 06:11:18;;;;;;;48.90;27.80;;;;;;;10.64;85.66;100029.42;112735;1193;25268;-58
2021/10/05 06:13:48;;;;;;;48.30;27.70;;;;;;;10.70;86.13;100024.48;113050;1200;23425;-55
2021/10/05 06:16:17;;;;;;;50.40;29.50;;;;;;;10.76;86.28;100019.48;112929;1200;22563;-57
2021/10/05 06:18:45;;;;;;;48.60;27.50;;;;;;;10.83;86.56;100015.17;113138;1200;22519;-58
2021/10/05 06:21:14;;;;;;;54.00;30.20;;;;;;;10.90;86.80;100006.50;113097;1193;24080;-60
2021/10/05 06:23:42;;;;;;;52.10;30.30;;;;;;;10.97;87.02;100002.93;113092;1200;24898;-56
2021/10/05 06:26:10;;;;;;;58.70;31.50;;;;;;;11.05;87.14;100007.97;112879;1200;22606;-57
2021/10/05 06:28:38;;;;;;;64.70;34.80;;;;;;;11.13;87.58;100006.30;112821;1200;25118;-57
2021/10/05 06:31:07;;;;;;;58.10;32.10;;;;;;;11.23;87.81;100002.36;112927;1200;25182;-59
2021/10/05 06:33:35;;;;;;;59.80;34.10;;;;;;;11.31;87.71;99998.55;112819;1200;22483;-58
2021/10/05 06:36:05;;;;;;;53.70;32.10;;;;;;;11.39;88.12;99990.72;112778;1200;22542;-61
2021/10/05 06:38:33;;;;;;;54.80;31.80;;;;;;;11.49;88.35;99984.52;112962;1200;22442;-59
2021/10/05 06:41:02;;;;;;;52.20;30.50;;;;;;;11.57;88.29;99982.02;113053;1200;22556;-59
2021/10/05 06:43:31;;;;;;;52.60;33.00;;;;;;;11.67;88.66;99976.05;113030;1200;24088;-58
2021/10/05 06:46:00;;;;;;;54.70;31.00;;;;;;;11.77;88.81;99977.68;112810;1200;22444;-56
2021/10/05 06:48:30;;;;;;;56.90;32.00;;;;;;;11.86;88.73;99972.98;112916;1200;25024;-58
2021/10/05 06:50:58;;;;;;;53.20;31.60;;;;;;;11.94;88.84;99971.02;112990;1193;24802;-56
2021/10/05 06:53:27;;;;;;;53.60;31.20;;;;;;;12.04;89.17;99972.09;113146;1187;24075;-58
2021/10/05 06:55:55;;;;;;;54.60;33.70;;;;;;;12.13;89.11;99969.61;113059;1200;25682;-57
2021/10/05 06:58:24;;;;;;;50.30;31.30;;;;;;;12.22;89.27;99963.74;112891;1200;22446;-59
2021/10/05 07:00:52;;;;;;;51.50;29.60;;;;;;;12.32;89.44;99962.23;113138;1200;22439;-57
2021/10/05 07:03:20;;;;;;;48.90;29.40;;;;;;;12.42;89.25;99960.21;113111;1200;22452;-61
2021/10/05 07:05:48;;;;;;;48.50;28.60;;;;;;;12.52;89.45;99962.38;112834;1192;22438;-60
2021/10/05 07:08:17;;;;;;;45.00;27.50;;;;;;;12.61;89.34;99956.65;113095;1200;22549;-61
2021/10/05 07:10:45;;;;;;;44.50;26.40;;;;;;;12.71;89.42;99946.11;113100;1200;24582;-58
2021/10/05 07:13:13;;;;;;;43.10;24.40;;;;;;;12.81;89.45;99942.18;113054;1200;22895;-58
2021/10/05 07:15:42;;;;;;;47.00;25.60;;;;;;;12.91;89.26;99941.67;112910;1200;22556;-60
2021/10/05 07:18:10;;;;;;;45.70;25.10;;;;;;;13.00;89.29;99939.22;113056;1193;22759;-58
2021/10/05 07:20:39;;;;;;;44.80;24.90;;;;;;;13.12;89.39;99929.96;113110;1193;24050;-59
2021/10/05 07:23:07;;;;;;;43.30;24.80;;;;;;;13.22;89.30;99926.84;113082;1200;23099;-60
2021/10/05 07:25:35;;;;;;;40.00;22.50;;;;;;;13.31;89.41;99920.05;113083;1200;25028;-60
2021/10/05 07:28:08;;;;;;;43.10;21.80;;;;;;;13.43;89.48;99922.92;113219;1200;22947;-59
2021/10/05 07:30:38;;;;;;;34.50;19.50;;;;;;;13.57;89.67;99927.91;113308;1200;23259;-59
2021/10/05 07:33:07;;;;;;;;;;;;;;;13.73;89.47;99927.68;113262;1200;22827;-57
2021/10/05 07:35:35;;;;;;;35.20;19.30;;;;;;;13.84;89.26;99926.98;113024;1200;22470;-59
2021/10/05 07:38:04;;;;;;;32.40;17.90;;;;;;;13.98;89.42;99926.88;113078;1193;22621;-59
2021/10/05 07:40:33;;;;;;;31.30;17.50;;;;;;;14.14;89.26;99921.31;113104;1200;23988;-58
2021/10/05 07:43:02;;;;;;;31.90;16.60;;;;;;;14.30;89.30;99918.30;113112;1200;24110;-58
2021/10/05 07:45:31;;;;;;;31.70;16.50;;;;;;;14.43;88.71;99915.79;113100;1200;24039;-59
2021/10/05 07:48:00;;;;;;;33.20;14.80;;;;;;;14.57;88.66;99909.48;113072;1200;25364;-59
2021/10/05 07:50:29;;;;;;;27.50;13.20;;;;;;;14.71;88.30;99907.70;113220;1193;24241;-58
2021/10/05 07:52:57;;;;;;;28.70;13.60;;;;;;;14.89;88.00;99897.88;113010;1200;25142;-58
2021/10/05 07:55:28;;;;;;;27.40;13.20;;;;;;;15.04;87.31;99886.32;113090;1200;22457;-58
2021/10/05 07:58:00;;;;;;;26.20;12.30;;;;;;;15.15;86.96;99880.95;113169;1200;25119;-57
2021/10/05 08:00:29;;;;;;;26.00;11.60;;;;;;;15.29;86.73;99882.77;113040;1200;24277;-61
2021/10/05 08:02:57;;;;;;;22.80;11.60;;;;;;;15.41;86.63;99877.08;113269;1177;22443;-59
2021/10/05 08:05:26;;;;;;;20.90;11.00;;;;;;;15.54;86.35;99873.95;113233;1194;25444;-62
2021/10/05 08:07:59;;;;;;;24.90;10.60;;;;;;;15.66;85.64;99865.66;112945;1193;22666;-60
2021/10/05 08:10:27;;;;;;;25.80;10.50;;;;;;;15.79;85.29;99856.86;112753;1200;24621;-58
2021/10/05 08:12:55;;;;;;;23.10;11.10;;;;;;;15.91;84.99;99850.36;112759;1200;24038;-58
2021/10/05 08:15:24;;;;;;;24.00;10.40;;;;;;;16.07;84.68;99849.20;112885;1200;22995;-58
2021/10/05 08:17:52;;;;;;;24.80;11.00;;;;;;;16.19;84.37;99842.31;112902;1193;22451;-58
2021/10/05 08:20:20;;;;;;;23.10;9.80;;;;;;;16.34;83.75;99838.86;113056;1200;23662;-60
2021/10/05 08:22:49;;;;;;;27.20;10.10;;;;;;;16.46;83.28;99832.30;112822;1200;22546;-58
2021/10/05 08:25:18;;;;;;;23.00;9.90;;;;;;;16.58;82.83;99827.92;112800;1200;24406;-59
2021/10/05 08:27:47;;;;;;;22.90;9.10;;;;;;;16.70;82.58;99822.61;112852;1193;25063;-58
2021/10/05 08:30:17;;;;;;;21.00;8.50;;;;;;;16.79;82.18;99819.01;112974;1200;22563;-60
2021/10/05 08:32:55;;;;;;;;;;;;;;;16.87;82.11;99814.49;112884;1200;25451;-59
2021/10/05 08:35:28;;;;;;;24.50;9.00;;;;;;;16.94;81.89;99812.65;112939;1200;25082;-60
2021/10/05 08:37:57;;;;;;;20.00;8.70;;;;;;;17.06;81.64;99816.09;112964;1193;22908;-59
2021/10/05 08:40:26;;;;;;;21.30;9.30;;;;;;;17.15;81.36;99815.23;112850;1200;25055;-64
2021/10/05 08:42:54;;;;;;;23.50;9.50;;;;;;;17.26;80.91;99814.98;112912;1186;25745;-58
2021/10/05 08:45:23;;;;;;;20.20;8.40;;;;;;;17.38;80.57;99811.41;112720;1193;22578;-58
2021/10/05 08:47:51;;;;;;;22.90;7.60;;;;;;;17.47;80.14;99803.73;112980;1200;24146;-60
2021/10/05 08:50:21;;;;;;;18.50;8.00;;;;;;;17.59;80.01;99806.27;112881;1200;22422;-58
2021/10/05 08:52:49;;;;;;;20.80;8.70;;;;;;;17.71;79.59;99799.16;112712;1193;24248;-58
2021/10/05 08:55:17;;;;;;;20.60;8.80;;;;;;;17.78;79.22;99799.69;112732;1200;22438;-59
2021/10/05 08:57:49;;;;;;;20.80;8.70;;;;;;;17.85;78.66;99792.42;112813;1200;24176;-61
2021/10/05 09:00:17;;;;;;;20.70;8.30;;;;;;;17.93;78.63;99782.27;112860;1193;25144;-57
2021/10/05 09:02:50;;;;;;;21.30;8.10;;;;;;;18.02;78.21;99776.42;112802;1193;24034;-61
2021/10/05 09:05:20;;;;;;;19.20;7.60;;;;;;;18.09;77.93;99765.91;113004;1200;22728;-62
2021/10/05 09:07:51;;;;;;;18.70;7.10;;;;;;;18.14;77.48;99764.89;113092;1192;25176;-59
2021/10/05 09:10:23;;;;;;;17.70;7.60;;;;;;;18.23;77.34;99765.29;113026;1200;25017;-60
2021/10/05 09:12:51;;;;;;;21.20;7.90;;;;;;;18.34;76.87;99763.77;112726;1200;26299;-60
2021/10/05 09:15:22;;;;;;;17.60;6.90;;;;;;;18.39;76.59;99760.21;112756;1192;22419;-56
2021/10/05 09:17:54;;;;;;;15.90;7.10;;;;;;;18.45;76.27;99763.40;112709;1200;22894;-60
2021/10/05 09:20:25;;;;;;;18.90;7.60;;;;;;;18.56;75.64;99758.71;112748;1200;24556;-60
2021/10/05 09:23:01;;;;;;;19.50;7.60;;;;;;;18.68;75.71;99754.75;112958;1187;25116;-61
2021/10/05 09:25:34;;;;;;;21.10;7.20;;;;;;;18.77;75.36;99754.36;112975;1200;24110;-61
2021/10/05 09:28:15;;;;;;;15.90;7.10;;;;;;;18.85;74.99;99752.29;112883;1200;22447;-59
2021/10/05 09:30:54;;;;;;;18.60;6.90;;;;;;;18.93;74.76;99753.02;112866;1200;22555;-60
2021/10/05 09:33:23;;;;;;;18.30;7.40;;;;;;;19.00;74.66;99761.20;113034;1200;23004;-61
2021/10/05 09:35:51;;;;;;;16.40;5.90;;;;;;;19.08;74.35;99756.06;113247;1200;22472;-60
2021/10/05 09:38:23;;;;;;;15.30;5.90;;;;;;;19.17;74.12;99761.67;113040;1192;22460;-59
2021/10/05 09:41:00;;;;;;;20.10;5.90;;;;;;;19.24;73.90;99757.66;112969;1200;25239;-59
2021/10/05 09:43:30;;;;;;;16.10;5.80;;;;;;;19.28;73.36;99759.69;113094;1186;26292;-60
2021/10/05 09:46:14;;;;;;;14.50;6.10;;;;;;;19.40;73.15;99759.39;112945;1200;25182;-59
2021/10/05 09:48:43;;;;;;;21.80;5.80;;;;;;;19.55;73.08;99757.27;112824;1200;22530;-60
2021/10/05 09:51:23;;;;;;;18.20;5.90;;;;;;;19.65;72.95;99757.23;112776;1193;22417;-60
2021/10/05 09:53:50;;;;;;;;;;;;;;;19.74;72.25;99749.95;113362;1177;23876;31
2021/10/05 09:56:19;;;;;;;17.90;5.50;;;;;;;19.87;71.82;99747.02;112645;1200;22491;-64
2021/10/05 09:58:48;;;;;;;15.80;4.90;;;;;;;19.97;71.32;99747.10;112570;1201;25160;-64
2021/10/05 10:01:18;;;;;;;11.70;4.40;;;;;;;20.08;70.36;99744.38;112709;1195;25227;-64
2021/10/05 10:03:47;;;;;;;14.70;4.50;;;;;;;20.19;70.37;99744.88;112612;1201;24862;-64
2021/10/05 10:06:17;;;;;;;10.50;4.10;;;;;;;20.26;69.69;99740.33;112573;1201;25158;-64
2021/10/05 10:08:46;;;;;;;15.50;5.00;;;;;;;20.32;69.05;99733.48;112588;1201;24999;-64
2021/10/05 10:11:14;;;;;;;15.20;5.00;;;;;;;20.39;68.71;99730.84;112516;1201;25301;-64
2021/10/05 10:13:44;;;;;;;15.00;5.40;;;;;;;20.49;68.57;99732.29;112647;1201;25400;-64
2021/10/05 10:16:13;;;;;;;12.20;4.30;;;;;;;20.54;68.27;99727.27;112731;1195;22429;-64
2021/10/05 10:18:51;;;;;;;22.40;4.50;;;;;;;20.60;68.16;99720.20;112768;1201;23042;-64
2021/10/05 10:21:26;;;;;;;14.20;5.90;;;;;;;20.69;68.15;99723.40;112509;1195;22556;-64
2021/10/05 10:24:12;;;;;;;13.80;5.00;;;;;;;20.80;67.62;99721.39;112580;1201;25259;-64
2021/10/05 10:26:47;;;;;;;13.30;3.80;;;;;;;20.87;66.84;99721.46;112636;1201;25039;-64
2021/10/05 10:29:27;;;;;;;19.20;5.30;;;;;;;20.93;66.87;99721.77;112733;1201;22522;-64
2021/10/05 10:31:55;;;;;;;20.80;4.50;;;;;;;21.01;66.23;99715.67;112525;1201;22464;-64
2021/10/05 10:34:24;;;;;;;13.00;4.80;;;;;;;21.09;65.97;99712.61;112501;1201;24179;-65
2021/10/05 10:36:52;;;;;;;19.30;5.30;;;;;;;21.18;65.46;99712.48;112730;1201;22566;-64
2021/10/05 10:39:24;;;;;;;12.10;4.20;;;;;;;21.27;65.40;99704.13;112542;1196;23110;-64
2021/10/05 10:42:03;;;;;;;13.70;5.00;;;;;;;21.36;64.97;99700.11;112575;1201;23549;-64
2021/10/05 10:44:36;;;;;;;14.40;4.40;;;;;;;21.39;64.56;99703.38;112613;1201;25259;-64
2021/10/05 10:47:10;;;;;;;14.10;4.00;;;;;;;21.46;64.45;99700.11;112452;1201;25104;-64
2021/10/05 10:49:40;;;;;;;17.20;4.90;;;;;;;21.52;63.75;99693.26;112646;1201;25114;-65
2021/10/05 10:52:09;;;;;;;16.70;4.60;;;;;;;21.58;63.26;99691.14;112714;1197;22455;-64
2021/10/05 10:54:37;;;;;;;15.60;4.80;;;;;;;21.64;63.55;99683.90;112787;1201;25097;-64
2021/10/05 10:57:08;;;;;;;14.60;4.80;;;;;;;21.65;63.13;99677.20;112708;1195;24261;-64
2021/10/05 10:59:36;;;;;;;11.50;3.90;;;;;;;21.70;62.21;99671.96;112650;1195;22440;-64
2021/10/05 11:02:07;;;;;;;12.30;3.70;;;;;;;21.82;62.24;99673.38;112484;1201;25326;-64
2021/10/05 11:04:37;;;;;;;13.20;3.70;;;;;;;21.87;61.94;99671.16;112530;1201;25100;-65
2021/10/05 11:07:06;;;;;;;16.00;3.40;;;;;;;21.94;61.74;99672.18;112531;1193;24101;-64
2021/10/05 11:09:36;;;;;;;16.30;3.90;;;;;;;22.01;60.79;99674.52;112579;1201;23106;-65
2021/10/05 11:12:08;;;;;;;13.40;4.80;;;;;;;22.06;61.16;99674.15;112504;1201;24071;-65
2021/10/05 11:14:39;;;;;;;12.00;4.20;;;;;;;22.08;60.69;99672.59;112574;1201;22423;-65
2021/10/05 11:17:10;;;;;;;15.50;3.50;;;;;;;22.13;60.57;99672.10;112476;1197;22581;-65